Time;durP1;ratioP1;P1;durP2;ratioP2;P2;SDS_P1;SDS_P2;PMS_P1;PMS_P2;Temp;Humidity;BMP_temperature;BMP_pressure;BME280_temperature;BME280_humidity;BME280_pressure;Samples;Min_cycle;Max_cycle;Signal;HPM_P1;HPM_P2
2021/01/13 00:00:23;;;;;;;12.57;3.00;;;;;;;5.51;60.66;101649.81;4921035;28;124059;-77
2021/01/13 00:02:50;;;;;;;11.32;3.45;;;;;;;5.49;60.37;101649.81;4920633;28;113549;-76
2021/01/13 00:05:17;;;;;;;14.23;3.58;;;;;;;5.48;60.45;101648.06;4903119;28;113326;-77
2021/01/13 00:07:48;;;;;;;13.15;3.50;;;;;;;5.50;60.56;101646.31;4912679;28;124200;-76
2021/01/13 00:10:15;;;;;;;13.68;3.28;;;;;;;5.49;60.51;101639.31;4913164;28;123838;-77
2021/01/13 00:12:43;;;;;;;11.88;3.40;;;;;;;5.48;60.50;101637.56;4913906;28;114275;-77
2021/01/13 00:15:10;;;;;;;16.70;3.83;;;;;;;5.46;60.44;101634.06;4913979;28;114092;-77
2021/01/13 00:17:37;;;;;;;10.80;3.83;;;;;;;5.45;60.64;101627.97;4912273;28;123130;-77
2021/01/13 00:20:05;;;;;;;19.10;4.22;;;;;;;5.45;60.53;101637.59;4925688;28;124612;-77
2021/01/13 00:22:32;;;;;;;17.85;3.83;;;;;;;5.45;60.22;101642.88;4909875;28;114925;-77
2021/01/13 00:24:59;;;;;;;17.33;4.50;;;;;;;5.44;60.33;101635.84;4930679;28;113607;-77
2021/01/13 00:27:26;;;;;;;12.30;4.05;;;;;;;5.44;60.52;101630.59;4909353;28;122304;-76
2021/01/13 00:29:53;;;;;;;12.35;3.60;;;;;;;5.42;60.38;101632.38;4938590;28;123820;-76
2021/01/13 00:32:20;;;;;;;10.68;3.65;;;;;;;5.41;60.11;101630.66;4910289;28;114356;-76
2021/01/13 00:34:47;;;;;;;15.93;3.80;;;;;;;5.40;60.17;101639.41;4899758;28;113990;-77
2021/01/13 00:37:14;;;;;;;13.43;3.30;;;;;;;5.39;60.24;101638.56;4898181;28;123606;-77
2021/01/13 00:39:41;;;;;;;12.07;3.45;;;;;;;5.37;60.46;101629.81;4897357;28;123221;-78
2021/01/13 00:42:08;;;;;;;13.55;3.47;;;;;;;5.37;60.32;101635.06;4920752;28;114371;-76
2021/01/13 00:44:35;;;;;;;13.13;3.95;;;;;;;5.36;60.13;101632.44;4914850;28;114208;-77
2021/01/13 00:47:02;;;;;;;14.70;3.83;;;;;;;5.35;60.22;101625.44;4890779;28;123222;-77
2021/01/13 00:49:29;;;;;;;12.95;3.42;;;;;;;5.35;60.19;101625.44;4876775;28;122549;-77
2021/01/13 00:51:56;;;;;;;11.80;3.65;;;;;;;5.33;60.22;101628.13;4913118;28;113155;-77
2021/01/13 00:54:22;;;;;;;11.65;3.83;;;;;;;5.33;60.47;101621.97;4883779;28;112975;-77
2021/01/13 00:56:50;;;;;;;16.52;3.75;;;;;;;5.33;60.28;101622.88;4900766;28;123541;-77
2021/01/13 00:59:16;;;;;;;15.98;3.78;;;;;;;5.31;60.17;101624.59;4919812;28;124312;-77
2021/01/13 01:01:46;;;;;;;16.05;3.70;;;;;;;5.29;60.20;101620.25;4923054;28;114719;-77
2021/01/13 01:04:13;;;;;;;11.18;3.25;;;;;;;5.29;60.06;101620.25;4910513;28;114266;-77
2021/01/13 01:06:39;;;;;;;11.20;3.15;;;;;;;5.28;60.30;101618.53;4917320;28;124253;-77
2021/01/13 01:09:07;;;;;;;11.13;3.78;;;;;;;5.25;60.54;101622.94;4916699;28;123471;-77
2021/01/13 01:11:37;;;;;;;11.93;3.38;;;;;;;5.24;60.83;101618.56;4900542;28;114009;-76
2021/01/13 01:14:09;;;;;;;8.80;3.10;;;;;;;5.22;60.58;101612.47;4883722;28;114843;-77
2021/01/13 01:16:38;;;;;;;12.90;3.30;;;;;;;5.23;60.55;101618.56;4899781;28;123801;-77
2021/01/13 01:19:06;;;;;;;10.60;3.22;;;;;;;5.21;60.53;101618.59;4917554;28;123973;-76
2021/01/13 01:21:40;;;;;;;12.40;3.63;;;;;;;5.19;60.62;101620.34;4922739;28;115145;-77
2021/01/13 01:24:08;;;;;;;14.63;3.50;;;;;;;5.20;60.66;101623.88;4899463;28;114137;-77
2021/01/13 01:26:46;;;;;;;9.60;3.03;;;;;;;5.19;60.64;101625.63;4883693;28;123344;-77
2021/01/13 01:29:14;;;;;;;14.05;3.42;;;;;;;5.18;60.55;101618.63;4900154;28;123372;-77
2021/01/13 01:31:41;;;;;;;12.32;3.00;;;;;;;5.16;60.46;101620.41;4910606;28;114130;-76
2021/01/13 01:34:07;;;;;;;12.38;3.20;;;;;;;5.17;60.70;101627.38;4885380;28;114284;-77
2021/01/13 01:36:34;;;;;;;10.57;3.65;;;;;;;5.16;60.64;101624.78;4898617;28;124046;-77
2021/01/13 01:39:01;;;;;;;12.60;3.10;;;;;;;5.15;60.62;101623.91;4930154;28;124185;-77
2021/01/13 01:41:28;;;;;;;14.52;3.65;;;;;;;5.15;60.71;101639.66;4896313;28;114729;-77
2021/01/13 01:43:54;;;;;;;15.30;3.35;;;;;;;5.15;60.83;101629.16;4912324;28;114623;-76
2021/01/13 01:46:23;;;;;;;12.35;3.17;;;;;;;5.13;60.71;101630.94;4898472;28;122983;-77
2021/01/13 01:48:56;;;;;;;9.45;2.78;;;;;;;5.11;60.61;101632.72;4929613;28;123822;-76
2021/01/13 01:51:24;;;;;;;11.75;2.92;;;;;;;5.11;60.82;101637.97;4915574;28;114300;-77
2021/01/13 01:54:13;;;;;;;12.48;3.28;;;;;;;5.10;60.50;101630.94;4898220;28;113861;-77
2021/01/13 01:56:41;;;;;;;10.63;3.20;;;;;;;5.11;60.80;101637.97;4884031;28;124198;-77
2021/01/13 01:59:13;;;;;;;12.80;3.35;;;;;;;5.09;60.77;101644.97;4900228;28;124552;-77
2021/01/13 02:01:51;;;;;;;10.27;3.20;;;;;;;5.09;60.68;101639.72;4901717;28;114497;-77
2021/01/13 02:04:32;;;;;;;12.38;3.42;;;;;;;5.08;61.04;101643.22;4913036;28;113488;-77
2021/01/13 02:06:58;;;;;;;12.43;2.75;;;;;;;5.11;60.93;101647.59;4890464;28;122720;-77
2021/01/13 02:09:26;;;;;;;12.82;3.22;;;;;;;5.11;60.72;101648.47;4887033;28;124515;-77
2021/01/13 02:11:54;;;;;;;10.93;3.10;;;;;;;5.11;60.79;101652.84;4902888;28;115635;-77
2021/01/13 02:14:22;;;;;;;10.70;3.45;;;;;;;5.10;61.05;101646.69;4896126;28;116156;-77
2021/01/13 02:16:52;;;;;;;12.85;3.00;;;;;;;5.11;60.88;101640.59;4907865;28;124005;-77
2021/01/13 02:19:41;;;;;;;12.00;2.75;;;;;;;5.10;61.09;101657.22;4897697;28;123315;-76
2021/01/13 02:22:12;;;;;;;13.43;3.10;;;;;;;5.13;61.04;101679.97;4905977;28;113414;-77
2021/01/13 02:25:16;;;;;;;11.77;2.80;;;;;;;5.10;61.07;101662.47;4892177;28;113331;-76
2021/01/13 02:28:07;;;;;;;11.88;3.40;;;;;;;5.08;61.07;101656.34;4907996;28;123762;-77
2021/01/13 02:30:38;;;;;;;11.13;3.00;;;;;;;5.10;60.94;101662.47;4908625;28;124214;-77
2021/01/13 02:33:21;;;;;;;16.42;3.53;;;;;;;5.10;60.97;101662.47;4909791;28;114350;-77
2021/01/13 02:36:17;;;;;;;12.02;3.17;;;;;;;5.11;61.01;101656.34;4896476;28;113184;-77
2021/01/13 02:38:49;;;;;;;9.52;2.63;;;;;;;5.15;61.08;101665.91;4880184;28;124289;-77
2021/01/13 02:41:17;;;;;;;13.38;2.97;;;;;;;5.15;61.08;101665.91;4887149;28;123963;-77
2021/01/13 02:44:09;;;;;;;14.65;2.90;;;;;;;5.16;60.99;101672.94;4896299;28;113976;-77
2021/01/13 02:46:51;;;;;;;11.88;2.92;;;;;;;5.19;61.17;101672.88;4889502;28;114054;-76
2021/01/13 02:49:30;;;;;;;9.45;2.60;;;;;;;5.20;60.93;101669.38;4903500;28;124047;-77
2021/01/13 02:51:59;;;;;;;12.43;2.97;;;;;;;5.21;61.39;101673.72;4902324;28;123272;-77
2021/01/13 02:54:27;;;;;;;13.95;3.28;;;;;;;5.23;61.24;101685.09;4902867;28;96819;-77
2021/01/13 02:57:15;;;;;;;13.25;3.05;;;;;;;5.24;61.16;101692.09;4916312;28;114155;-77
2021/01/13 02:59:44;;;;;;;7.30;2.88;;;;;;;5.26;61.39;101689.47;4884264;28;123908;-76
2021/01/13 03:02:11;;;;;;;8.40;2.75;;;;;;;5.30;61.48;101695.56;4910148;28;124362;-77
2021/01/13 03:04:39;;;;;;;13.20;3.25;;;;;;;5.32;61.80;101688.53;4914559;28;115021;-77
2021/01/13 03:07:14;;;;;;;8.70;2.60;;;;;;;5.33;61.46;101700.75;4908915;28;114715;-76
2021/01/13 03:09:46;;;;;;;12.13;2.60;;;;;;;5.35;61.34;101693.75;4910457;28;123944;-77
2021/01/13 03:12:27;;;;;;;11.00;2.63;;;;;;;5.37;61.49;101687.59;4896054;28;124333;-77
2021/01/13 03:14:56;;;;;;;9.85;2.60;;;;;;;5.41;61.50;101698.97;4909183;28;114189;-77
2021/01/13 03:17:28;;;;;;;9.20;2.55;;;;;;;5.44;61.96;101685.78;4897530;28;114028;-77
2021/01/13 03:20:18;;;;;;;15.52;2.60;;;;;;;5.46;61.67;101687.50;4893177;28;123660;-77
2021/01/13 03:22:58;;;;;;;12.68;2.17;;;;;;;5.51;62.03;101695.34;4891925;28;123646;-77
2021/01/13 03:25:25;;;;;;;8.77;2.20;;;;;;;5.56;61.84;101683.03;4910579;28;114286;-77
2021/01/13 03:27:54;;;;;;;10.52;2.08;;;;;;;5.60;62.02;101674.22;4914784;28;113897;-77
2021/01/13 03:30:22;;;;;;;11.18;2.00;;;;;;;5.65;62.32;101671.53;4923457;28;124636;-77
2021/01/13 03:33:00;;;;;;;11.73;2.22;;;;;;;5.69;62.02;101677.63;4915236;28;123312;-77
2021/01/13 03:35:45;;;;;;;11.98;2.03;;;;;;;5.73;62.09;101664.44;4895094;28;114307;-77
2021/01/13 03:38:17;;;;;;;7.10;1.65;;;;;;;5.76;62.03;101668.78;4898615;28;114587;-77
2021/01/13 03:40:46;;;;;;;14.20;2.40;;;;;;;5.80;62.04;101673.09;4907787;28;124262;-76
2021/01/13 03:43:21;;;;;;;7.60;2.03;;;;;;;5.82;62.31;101674.84;4910195;28;124148;-77
2021/01/13 03:45:55;;;;;;;13.60;2.58;;;;;;;5.86;62.28;101696.72;4875085;28;113150;-77
2021/01/13 03:48:47;;;;;;;10.95;1.98;;;;;;;5.87;62.21;101687.94;4903198;28;113991;-77
2021/01/13 03:51:53;;;;;;;8.55;1.77;;;;;;;5.87;61.88;101669.53;4890406;28;124722;-77
2021/01/13 03:54:24;;;;;;;8.35;2.17;;;;;;;5.90;62.36;101677.38;4906581;28;123381;-76
2021/01/13 03:57:00;;;;;;;9.60;1.75;;;;;;;5.93;62.26;101661.56;4897541;28;115691;-77
2021/01/13 03:59:40;;;;;;;11.30;1.77;;;;;;;5.96;62.15;101648.41;4899348;28;114760;-77
2021/01/13 04:02:08;;;;;;;9.10;1.92;;;;;;;6.01;62.22;101651.84;4917061;28;123644;-77
2021/01/13 04:04:58;;;;;;;8.95;2.15;;;;;;;6.06;62.37;101664.06;4897511;28;123274;-77
2021/01/13 04:07:37;;;;;;;12.18;2.03;;;;;;;6.08;62.33;101657.88;4902134;28;113955;-77
2021/01/13 04:10:13;;;;;;;9.77;1.95;;;;;;;6.11;62.20;101651.75;4885266;28;113255;-76
2021/01/13 04:13:14;;;;;;;9.55;1.88;;;;;;;6.11;62.48;101657.88;4889446;28;123076;-77
2021/01/13 04:15:40;;;;;;;5.88;1.75;;;;;;;6.14;62.17;101656.94;4890063;28;123015;-77
2021/01/13 04:18:10;;;;;;;10.43;2.15;;;;;;;6.16;62.05;101665.69;4904259;28;114307;-76
2021/01/13 04:20:37;;;;;;;12.18;2.25;;;;;;;6.17;62.04;101675.31;4894715;28;114062;-77
2021/01/13 04:23:05;;;;;;;11.82;2.35;;;;;;;6.19;62.25;101673.53;4886835;28;124135;-77
2021/01/13 04:25:33;;;;;;;11.80;2.30;;;;;;;6.20;62.18;101675.28;4903735;28;123687;-77
2021/01/13 04:28:00;;;;;;;13.93;2.35;;;;;;;6.22;62.24;101663.00;4878163;28;113166;-78
2021/01/13 04:30:27;;;;;;;11.50;2.22;;;;;;;6.22;61.98;101660.34;4901100;28;114097;-77
2021/01/13 04:32:55;;;;;;;10.40;2.53;;;;;;;6.24;62.20;101666.47;4904626;28;123983;-77
2021/01/13 04:35:24;;;;;;;7.20;2.30;;;;;;;6.24;62.08;101661.19;4894870;28;124004;-77
2021/01/13 04:37:52;;;;;;;10.80;2.15;;;;;;;6.26;62.36;101659.41;4889906;28;113906;-77
2021/01/13 04:40:40;;;;;;;13.88;2.33;;;;;;;6.26;62.27;101654.16;4898508;28;114452;-77
2021/01/13 04:43:08;;;;;;;14.02;2.55;;;;;;;6.28;62.12;101659.41;4895340;28;123628;-77
2021/01/13 04:45:42;;;;;;;15.30;2.28;;;;;;;6.27;62.04;101661.13;4888699;28;123761;-77
2021/01/13 04:48:11;;;;;;;12.45;2.17;;;;;;;6.27;62.35;101655.03;4909773;28;115291;-77
2021/01/13 04:50:40;;;;;;;14.70;2.20;;;;;;;6.26;62.23;101648.91;4903702;28;115197;-77
2021/01/13 04:53:16;;;;;;;10.15;2.40;;;;;;;6.26;62.30;101648.91;4923588;28;123294;-77
2021/01/13 04:55:51;;;;;;;10.10;2.10;;;;;;;6.25;62.22;101657.66;4893121;28;123211;-77
2021/01/13 04:58:20;;;;;;;14.15;2.20;;;;;;;6.25;62.23;101652.41;4885994;28;113812;-77
2021/01/13 05:01:16;;;;;;;14.05;2.20;;;;;;;6.24;62.36;101646.28;4912535;28;114256;-77
2021/01/13 05:04:19;;;;;;;13.98;2.00;;;;;;;6.24;62.56;101632.28;4883928;28;124277;-77
2021/01/13 05:06:57;;;;;;;13.38;2.15;;;;;;;6.25;62.38;101631.34;4865883;28;122786;-77
2021/01/13 05:09:33;;;;;;;7.07;2.05;;;;;;;6.24;62.78;101629.63;4933654;23;114203;-73
2021/01/13 05:12:06;;;;;;;11.95;2.22;;;;;;;6.26;62.71;101638.38;4915255;28;112818;-72
2021/01/13 05:14:43;;;;;;;16.25;2.50;;;;;;;6.27;62.52;101633.97;4934662;28;123802;-73
2021/01/13 05:17:35;;;;;;;16.25;2.20;;;;;;;6.26;62.64;101633.13;4932978;28;123043;-74
2021/01/13 05:20:24;;;;;;;11.55;1.90;;;;;;;6.27;62.26;101639.22;4908154;28;112496;-72
2021/01/13 05:22:52;;;;;;;11.23;2.20;;;;;;;6.27;62.50;101634.84;4913933;28;114257;-72
2021/01/13 05:25:36;;;;;;;13.25;2.10;;;;;;;6.26;62.52;101627.84;4915288;28;124190;-73
2021/01/13 05:28:12;;;;;;;17.60;1.90;;;;;;;6.27;62.43;101628.72;4912741;28;123257;-74
2021/01/13 05:30:43;;;;;;;16.55;2.53;;;;;;;6.27;62.45;101624.31;4911319;28;114086;-73
2021/01/13 05:33:13;;;;;;;7.50;2.50;;;;;;;6.26;62.57;101633.13;4912755;28;112995;-72
2021/01/13 05:35:43;;;;;;;12.02;2.08;;;;;;;6.24;62.12;101624.38;4913988;28;123184;-73
2021/01/13 05:38:30;;;;;;;11.85;2.40;;;;;;;6.23;62.11;101625.25;4907535;28;123064;-73
2021/01/13 05:40:57;;;;;;;11.85;2.35;;;;;;;6.22;62.08;101626.16;4915331;28;115502;-73
2021/01/13 05:43:24;;;;;;;13.40;2.28;;;;;;;6.19;62.02;101631.44;4913978;28;114686;-72
2021/01/13 05:45:51;;;;;;;17.83;3.05;;;;;;;6.18;61.98;101619.22;4915673;28;124004;-75
2021/01/13 05:48:20;;;;;;;17.33;2.70;;;;;;;6.17;62.10;101620.09;4915100;28;124058;-73
2021/01/13 05:50:50;;;;;;;10.88;2.25;;;;;;;6.16;61.95;101615.72;4914052;28;114518;-74
2021/01/13 05:53:17;;;;;;;17.42;2.67;;;;;;;6.13;61.93;101611.38;4915297;28;114983;-73
2021/01/13 05:55:48;;;;;;;10.52;2.67;;;;;;;6.11;62.21;101617.56;4915196;28;124213;-73
2021/01/13 05:58:21;;;;;;;12.70;2.28;;;;;;;6.10;62.20;101621.06;4913905;28;124491;-71
2021/01/13 06:00:50;;;;;;;14.50;2.60;;;;;;;6.09;62.21;101619.34;4916890;28;114896;-72
2021/01/13 06:03:20;;;;;;;11.30;2.20;;;;;;;6.10;62.05;101615.81;4901669;28;113154;-73
2021/01/13 06:05:50;;;;;;;13.38;2.50;;;;;;;6.09;62.14;101608.81;4914797;28;123946;-73
2021/01/13 06:08:18;;;;;;;14.65;2.75;;;;;;;6.08;62.13;101612.31;4914613;28;123770;-73
2021/01/13 06:10:45;;;;;;;15.07;2.75;;;;;;;6.07;62.00;101615.88;4915038;28;114747;-73
2021/01/13 06:13:18;;;;;;;13.30;3.47;;;;;;;6.04;62.19;101609.72;4915162;28;114281;-73
2021/01/13 06:15:46;;;;;;;10.45;3.05;;;;;;;6.02;62.14;101608.88;4902316;28;124007;-72
2021/01/13 06:18:14;;;;;;;17.50;3.63;;;;;;;6.02;62.39;101603.63;4913662;28;123790;-73
2021/01/13 06:20:45;;;;;;;16.70;3.40;;;;;;;6.01;62.27;101606.31;4913146;28;114689;-73
2021/01/13 06:23:12;;;;;;;12.20;3.10;;;;;;;5.99;62.21;101608.94;4897625;28;113115;-72
2021/01/13 06:25:41;;;;;;;14.68;3.22;;;;;;;5.98;62.41;101601.06;4889932;28;122710;-73
2021/01/13 06:28:23;;;;;;;15.50;3.10;;;;;;;5.98;62.34;101596.69;4914463;28;124644;-72
2021/01/13 06:31:07;;;;;;;17.10;3.90;;;;;;;5.94;62.39;101594.94;4920499;28;115249;-74
2021/01/13 06:33:46;;;;;;;15.23;3.70;;;;;;;5.92;61.96;101599.38;4912271;28;113930;-72
2021/01/13 06:36:30;;;;;;;13.02;3.78;;;;;;;5.90;62.14;101603.78;4914803;28;123506;-72
2021/01/13 06:39:04;;;;;;;15.50;4.30;;;;;;;5.91;62.13;101597.59;4908709;28;123221;-72
2021/01/13 06:41:46;;;;;;;16.25;4.13;;;;;;;5.90;61.97;101593.25;4912661;28;114459;-73
2021/01/13 06:44:14;;;;;;;13.68;4.65;;;;;;;5.88;62.26;101600.31;4912359;28;113574;-72
2021/01/13 06:46:40;;;;;;;16.15;4.97;;;;;;;5.85;62.09;101600.34;4914160;28;123960;-72
2021/01/13 06:49:13;;;;;;;15.70;5.30;;;;;;;5.85;62.05;101610.84;4914129;28;124319;-73
2021/01/13 06:51:42;;;;;;;14.25;5.53;;;;;;;5.84;62.07;101609.13;4913173;28;116066;-75
2021/01/13 06:54:16;;;;;;;14.38;5.60;;;;;;;5.82;62.04;101606.50;4911762;28;114086;-72
2021/01/13 06:56:49;;;;;;;16.47;5.63;;;;;;;5.82;62.21;101605.63;4911566;28;123790;-73
2021/01/13 06:59:17;;;;;;;17.30;5.70;;;;;;;5.80;62.12;101603.03;4913109;28;124489;-71
2021/01/13 07:01:57;;;;;;;17.70;5.85;;;;;;;5.77;62.18;101597.81;4912738;28;114522;-72
2021/01/13 07:04:26;;;;;;;17.38;5.75;;;;;;;5.77;62.19;101602.19;4924706;28;112915;-73
2021/01/13 07:06:59;;;;;;;17.08;5.72;;;;;;;5.76;62.25;101605.69;4912138;28;123626;-73
2021/01/13 07:09:43;;;;;;;13.80;5.90;;;;;;;5.74;62.59;101607.47;4912880;28;124181;-72
2021/01/13 07:12:19;;;;;;;21.52;6.15;;;;;;;5.74;62.51;101607.47;4912443;28;112784;-73
2021/01/13 07:14:49;;;;;;;14.32;5.65;;;;;;;5.74;62.58;101607.47;4912919;28;114364;-73
2021/01/13 07:17:24;;;;;;;14.68;6.07;;;;;;;5.75;62.39;101603.97;4911794;28;123243;-72
2021/01/13 07:19:55;;;;;;;15.45;5.82;;;;;;;5.75;62.64;101609.25;4911177;28;124122;-74
2021/01/13 07:22:24;;;;;;;14.05;6.30;;;;;;;5.75;62.32;101606.63;4911641;28;115819;-73
2021/01/13 07:24:51;;;;;;;12.05;6.00;;;;;;;5.74;62.35;101607.47;4911899;28;114855;-72
2021/01/13 07:27:19;;;;;;;17.92;5.93;;;;;;;5.74;62.51;101607.47;4910451;28;123061;-73
2021/01/13 07:29:48;;;;;;;19.25;6.82;;;;;;;5.74;62.48;101612.75;4912084;28;123981;-73
2021/01/13 07:32:20;;;;;;;14.05;6.07;;;;;;;5.74;62.38;101604.84;4912391;28;114136;-71
2021/01/13 07:34:52;;;;;;;18.00;6.22;;;;;;;5.73;62.60;101605.75;4912544;28;113287;-73
2021/01/13 07:37:24;;;;;;;19.88;5.65;;;;;;;5.74;62.39;101603.09;4894197;28;122752;-72
2021/01/13 07:40:04;;;;;;;12.80;5.78;;;;;;;5.74;62.27;101607.47;4912333;28;123056;-72
2021/01/13 07:42:37;;;;;;;16.13;6.40;;;;;;;5.73;62.27;101605.75;4914387;28;114710;-75
2021/01/13 07:45:15;;;;;;;19.92;6.93;;;;;;;5.72;62.52;101611.91;4911728;28;114121;-72
2021/01/13 07:48:01;;;;;;;19.98;6.65;;;;;;;5.71;62.28;101612.78;4911262;28;124619;-72
2021/01/13 07:50:32;;;;;;;18.15;6.45;;;;;;;5.71;62.22;101608.41;4910200;28;124082;-73
2021/01/13 07:53:08;;;;;;;21.40;6.93;;;;;;;5.70;62.52;101616.31;4913212;28;114447;-71
2021/01/13 07:55:43;;;;;;;18.75;6.70;;;;;;;5.71;62.36;101615.41;4912721;28;113751;-72
2021/01/13 07:58:20;;;;;;;17.63;6.85;;;;;;;5.70;62.68;101616.31;4900086;28;124340;-73
2021/01/13 08:01:21;;;;;;;16.35;6.90;;;;;;;5.69;62.57;101619.81;4912358;28;124158;-73
2021/01/13 08:04:10;;;;;;;16.08;6.40;;;;;;;5.70;62.36;101616.31;4908641;28;114359;-72
2021/01/13 08:06:46;;;;;;;17.95;6.90;;;;;;;5.68;62.69;101607.56;4913494;28;114289;-72
2021/01/13 08:09:21;;;;;;;21.58;7.13;;;;;;;5.66;62.43;101611.06;4909156;28;124148;-72
2021/01/13 08:12:03;;;;;;;18.25;7.45;;;;;;;5.67;62.74;101617.22;4888956;28;122896;-72
2021/01/13 08:14:32;;;;;;;19.77;6.68;;;;;;;5.69;62.89;101609.28;4911651;28;115705;-73
2021/01/13 08:17:37;;;;;;;15.40;7.22;;;;;;;5.69;62.92;101614.53;4913613;28;115967;-72
2021/01/13 08:20:21;;;;;;;19.58;7.18;;;;;;;5.71;62.78;101618.03;4912289;28;123269;-74
2021/01/13 08:23:09;;;;;;;16.52;6.90;;;;;;;5.72;62.84;101614.53;4906975;28;123652;-73
2021/01/13 08:25:37;;;;;;;18.67;6.90;;;;;;;5.75;62.57;101620.63;4911020;28;113573;-72
2021/01/13 08:28:10;;;;;;;20.90;7.05;;;;;;;5.77;62.77;101612.72;4913325;28;113987;-72
2021/01/13 08:30:40;;;;;;;18.98;7.50;;;;;;;5.78;63.10;101609.19;4911192;28;123978;-73
2021/01/13 08:33:18;;;;;;;19.33;7.50;;;;;;;5.82;62.92;101616.13;4911836;28;123888;-72
2021/01/13 08:35:48;;;;;;;17.88;7.63;;;;;;;5.85;63.08;101621.34;4910732;28;114444;-72
2021/01/13 08:38:15;;;;;;;23.27;7.85;;;;;;;5.87;62.83;101611.69;4910608;28;113904;-72
2021/01/13 08:40:43;;;;;;;15.43;6.80;;;;;;;5.89;62.99;101607.28;4908899;28;122122;-72
2021/01/13 08:43:15;;;;;;;19.95;7.25;;;;;;;5.91;62.72;101608.13;4928705;28;124465;-72
2021/01/13 08:45:48;;;;;;;22.85;7.75;;;;;;;5.95;63.06;101617.78;4937042;28;114853;-71
2021/01/13 08:48:21;;;;;;;16.20;6.88;;;;;;;5.98;62.95;101617.72;4924605;28;112188;-72
2021/01/13 08:51:04;;;;;;;21.02;6.55;;;;;;;6.01;62.89;101617.69;4919754;28;123332;-72
2021/01/13 08:53:32;;;;;;;18.90;6.97;;;;;;;6.04;62.85;101612.34;4934443;28;125101;-72
2021/01/13 08:55:59;;;;;;;20.27;7.60;;;;;;;6.07;63.04;101615.88;4929274;28;114586;-72
2021/01/13 08:58:28;;;;;;;19.88;6.57;;;;;;;6.09;62.67;101619.34;4915320;28;113571;-72
2021/01/13 09:01:02;;;;;;;17.80;7.50;;;;;;;6.11;62.69;101612.28;4915711;28;123800;-72
2021/01/13 09:03:36;;;;;;;16.80;6.82;;;;;;;6.13;62.74;101610.50;4913319;28;124656;-72
2021/01/13 09:06:19;;;;;;;21.85;7.57;;;;;;;6.15;62.87;101611.34;4914565;28;115321;-75
2021/01/13 09:08:51;;;;;;;17.63;7.00;;;;;;;6.16;62.87;101605.19;4914277;28;115655;-72
2021/01/13 09:11:36;;;;;;;15.00;6.78;;;;;;;6.16;62.70;101615.72;4915850;28;124078;-72
2021/01/13 09:14:32;;;;;;;20.35;7.63;;;;;;;6.16;62.86;101616.59;4906488;28;124167;-72
2021/01/13 09:16:59;;;;;;;17.38;7.40;;;;;;;6.20;62.57;101620.06;4912687;28;114461;-72
2021/01/13 09:19:35;;;;;;;22.83;7.90;;;;;;;6.20;62.52;101618.28;4911280;28;113816;-72
2021/01/13 09:22:04;;;;;;;19.83;7.60;;;;;;;6.22;62.57;101626.16;4913720;28;122922;-73
2021/01/13 09:24:39;;;;;;;18.83;8.10;;;;;;;6.24;63.02;101619.13;4907726;28;122614;-72
2021/01/13 09:27:08;;;;;;;23.03;8.33;;;;;;;6.26;63.02;101622.59;4914753;28;114585;-72
2021/01/13 09:29:48;;;;;;;19.58;8.10;;;;;;;6.28;62.74;101620.81;4914060;28;114185;-71
2021/01/13 09:32:16;;;;;;;17.50;8.20;;;;;;;6.32;62.75;101621.63;4914845;28;124481;-72
2021/01/13 09:34:45;;;;;;;22.08;7.63;;;;;;;6.35;62.66;101611.94;4913615;28;122894;-72
2021/01/13 09:37:12;;;;;;;22.52;8.48;;;;;;;6.37;63.09;101604.88;4914156;28;113191;-71
2021/01/13 09:39:53;;;;;;;18.85;8.10;;;;;;;6.41;63.15;101605.72;4915898;28;114114;-72
2021/01/13 09:42:22;;;;;;;21.75;8.85;;;;;;;6.43;62.83;101610.03;4909937;28;124019;-73
2021/01/13 09:45:00;;;;;;;22.70;8.02;;;;;;;6.46;63.06;101613.50;4906499;28;123771;-72
2021/01/13 09:47:27;;;;;;;26.73;8.27;;;;;;;6.51;63.35;101609.06;4913583;28;114455;-73
2021/01/13 09:49:57;;;;;;;19.38;8.15;;;;;;;6.56;62.96;101604.59;4915092;28;112932;-73
2021/01/13 09:52:38;;;;;;;18.20;8.77;;;;;;;6.60;63.25;101606.28;4914044;28;124239;-72
2021/01/13 09:55:06;;;;;;;18.30;8.20;;;;;;;6.64;63.19;101605.34;4914470;28;124009;-72
2021/01/13 09:57:33;;;;;;;22.98;8.50;;;;;;;6.69;63.45;101611.41;4914535;28;114990;-73
2021/01/13 10:00:07;;;;;;;22.35;7.93;;;;;;;6.73;63.34;101602.56;4915649;28;115558;-73
2021/01/13 10:02:42;;;;;;;21.17;8.63;;;;;;;6.79;63.43;101602.44;4898363;28;123504;-72
2021/01/13 10:05:11;;;;;;;23.90;8.30;;;;;;;6.85;63.17;101595.34;4911136;28;124605;-72
2021/01/13 10:07:38;;;;;;;21.75;7.88;;;;;;;6.90;63.38;101598.78;4899258;28;114458;-71
2021/01/13 10:10:07;;;;;;;13.70;7.20;;;;;;;6.93;63.00;101598.69;4915066;28;113870;-72
2021/01/13 10:12:42;;;;;;;18.92;7.88;;;;;;;6.99;63.25;101603.88;4913557;28;122819;-72
2021/01/13 10:15:11;;;;;;;18.25;7.47;;;;;;;7.05;63.09;101603.75;4914468;28;124069;-72
2021/01/13 10:17:38;;;;;;;14.77;7.45;;;;;;;7.08;62.83;101608.94;4907058;28;113274;-72
2021/01/13 10:20:18;;;;;;;22.92;7.18;;;;;;;7.10;63.00;101601.91;4906950;28;113716;-72
2021/01/13 10:22:46;;;;;;;19.02;7.50;;;;;;;7.14;62.68;101603.59;4906438;28;123991;-73
2021/01/13 10:25:24;;;;;;;21.73;8.05;;;;;;;7.17;62.75;101603.50;4910864;28;124341;-71
2021/01/13 10:27:51;;;;;;;20.08;7.65;;;;;;;7.21;62.80;101599.94;4910145;28;113709;-72
2021/01/13 10:30:18;;;;;;;16.30;7.28;;;;;;;7.26;63.09;101601.63;4914827;28;114236;-72
2021/01/13 10:32:50;;;;;;;17.30;7.43;;;;;;;7.31;62.77;101605.00;4912520;28;124028;-73
2021/01/13 10:35:20;;;;;;;18.27;6.97;;;;;;;7.35;62.90;101602.31;4911621;28;124202;-71
2021/01/13 10:37:54;;;;;;;14.70;6.95;;;;;;;7.39;62.68;101603.13;4908061;28;113164;-73
2021/01/13 10:40:23;;;;;;;22.98;7.47;;;;;;;7.43;62.94;101594.25;4910807;28;113782;-72
2021/01/13 10:42:52;;;;;;;17.85;6.78;;;;;;;7.48;62.45;101587.13;4913801;28;123862;-72
2021/01/13 10:45:20;;;;;;;16.35;6.85;;;;;;;7.54;62.69;101584.38;4912409;28;123831;-72
2021/01/13 10:47:59;;;;;;;16.20;6.97;;;;;;;7.62;62.49;101593.88;4913913;28;114617;-72
2021/01/13 10:50:29;;;;;;;18.55;6.68;;;;;;;7.69;62.44;101590.22;4912544;28;114057;-72
2021/01/13 10:53:00;;;;;;;14.93;6.55;;;;;;;7.75;62.73;101584.81;4913986;28;124249;-72
2021/01/13 10:55:29;;;;;;;16.80;6.28;;;;;;;7.82;62.51;101581.16;4912851;28;123482;-72
2021/01/13 10:57:56;;;;;;;13.57;6.25;;;;;;;7.88;62.22;101575.72;4914035;28;114170;-72
2021/01/13 11:00:28;;;;;;;15.75;6.35;;;;;;;7.93;62.30;101581.78;4913334;28;114288;-72
2021/01/13 11:02:55;;;;;;;14.40;6.18;;;;;;;7.99;62.26;101563.16;4910714;28;124009;-73
2021/01/13 11:05:24;;;;;;;15.32;5.55;;;;;;;8.06;62.31;101576.22;4913474;28;124077;-72
2021/01/13 11:07:54;;;;;;;17.33;5.78;;;;;;;8.10;62.10;101570.84;4911853;28;113206;-72
2021/01/13 11:10:37;;;;;;;;;;;;;;;8.16;61.90;101580.41;4914212;28;114190;-79
2021/01/13 11:13:04;;;;;;;18.23;5.57;;;;;;;8.20;61.81;101571.50;4897415;28;123186;-77
2021/01/13 11:15:32;;;;;;;14.13;6.00;;;;;;;8.20;61.58;101560.94;4898381;28;123138;-77
2021/01/13 11:17:59;;;;;;;17.75;6.18;;;;;;;8.22;61.65;101563.56;4922935;28;115127;-77
2021/01/13 11:20:30;;;;;;;19.40;6.00;;;;;;;8.23;61.74;101565.28;4908303;28;114700;-77
2021/01/13 11:23:05;;;;;;;16.05;6.90;;;;;;;8.26;61.58;101571.34;4896911;28;123530;-77
2021/01/13 11:25:37;;;;;;;;;;;;;;;8.29;61.82;101562.50;4896279;28;123391;-77
2021/01/13 11:28:10;;;;;;;15.18;6.22;;;;;;;8.36;61.70;101559.69;4914272;28;114491;-77
2021/01/13 11:30:40;;;;;;;15.38;6.03;;;;;;;8.43;61.71;101554.28;4898246;28;113240;-77
2021/01/13 11:33:28;;;;;;;14.70;6.80;;;;;;;8.48;61.75;101555.03;4897418;28;122510;-79
2021/01/13 11:35:55;;;;;;;13.60;6.72;;;;;;;8.54;61.43;101554.88;4897431;28;122782;-77
2021/01/13 11:38:58;;;;;;;19.50;6.75;;;;;;;8.58;61.47;101538.91;4892863;28;114920;-77
2021/01/13 11:42:01;;;;;;;17.42;7.38;;;;;;;8.64;61.52;101535.25;4902176;28;115506;-77
2021/01/13 11:44:34;;;;;;;17.83;6.60;;;;;;;8.69;61.48;101533.34;4899947;28;123213;-77
2021/01/13 11:47:26;;;;;;;16.95;6.85;;;;;;;8.71;61.19;101520.97;4884176;28;123015;-77